Alplaus, New York
Current Conditions -  °F | °C
As of 4:41 PM on Wednesday 17 Dec 2014 (Local Time) from KALB Reporting Station
Light Rain Light Rain  
Wind Chill:   Ceiling: 2400
Heat Index:   Visibility: 10mi
Dew Point:   Wind: 8mph
Humidity: 77%   Direction: 300°WNW
Pressure: 29.83"   Gusts: NA
Location:  42.86°N, 73.9°W
Report Text: KALB 172141Z 30007KT 10SM -RA FEW018 BKN024 OVC044 04/01 A2983 RMK AO2 RAB13 P0000 T00440006
Loading
Personal Weather Stations






























Interactive Weather Map New forecast layout! Learn more

10-Day Weather Forecast

Advertisements
Track Severe Weather on mobile